createdAt,value
2024-02-29T00:00:14.951Z,4.60
2024-02-29T00:02:41.894Z,4.50
2024-02-29T00:05:12.816Z,4.40
2024-02-29T00:07:40.912Z,4.20
2024-02-29T00:10:09.662Z,4.20
2024-02-29T00:12:37.012Z,4.20
2024-02-29T00:15:04.108Z,4.20
2024-02-29T00:17:32.774Z,4.20
2024-02-29T00:20:00.298Z,4.20
2024-02-29T00:22:27.176Z,4.00
2024-02-29T00:24:54.152Z,4.10
2024-02-29T00:27:22.361Z,4.10
2024-02-29T00:29:49.434Z,4.00
2024-02-29T00:32:16.289Z,4.00
2024-02-29T00:34:43.181Z,4.10
2024-02-29T00:37:10.583Z,4.20
2024-02-29T00:39:37.594Z,4.20
2024-02-29T00:42:04.673Z,4.10
2024-02-29T00:44:31.551Z,4.20
2024-02-29T00:46:58.524Z,4.20
2024-02-29T00:49:25.395Z,4.20
2024-02-29T00:51:52.321Z,4.20
2024-02-29T00:54:19.563Z,4.20
2024-02-29T00:56:46.507Z,4.20
2024-02-29T00:59:13.429Z,4.20
2024-02-29T01:01:40.424Z,4.10
2024-02-29T01:04:07.422Z,4.20
2024-02-29T01:06:34.497Z,4.20
2024-02-29T01:09:01.520Z,4.20
2024-02-29T01:11:28.997Z,4.20
2024-02-29T01:13:55.972Z,4.20
2024-02-29T01:16:23.056Z,4.20
2024-02-29T01:18:50.064Z,4.20
2024-02-29T01:21:17.036Z,4.20
2024-02-29T01:23:43.932Z,4.30
2024-02-29T01:26:11.876Z,4.30
2024-02-29T01:28:38.833Z,4.20
2024-02-29T01:31:07.013Z,4.30
2024-02-29T01:33:34.214Z,4.20
2024-02-29T01:36:01.419Z,4.30
2024-02-29T01:38:28.534Z,4.40
2024-02-29T01:40:55.657Z,4.30
2024-02-29T01:43:22.557Z,4.20
2024-02-29T01:46:11.999Z,4.30
2024-02-29T01:48:39.505Z,4.20
2024-02-29T01:51:07.530Z,4.30
2024-02-29T01:53:35.011Z,4.10
2024-02-29T01:56:02.293Z,4.10
2024-02-29T01:58:30.160Z,4.20
2024-02-29T02:00:57.159Z,4.20
2024-02-29T02:03:24.143Z,3.90
2024-02-29T02:05:51.063Z,3.80
2024-02-29T02:08:18.098Z,3.70
2024-02-29T02:10:45.036Z,3.80
2024-02-29T02:13:12.080Z,3.70
2024-02-29T02:15:39.490Z,3.50
2024-02-29T02:18:06.582Z,3.60
2024-02-29T02:20:34.080Z,3.60
2024-02-29T02:23:01.052Z,3.50
2024-02-29T02:25:28.050Z,3.70
2024-02-29T02:27:55.597Z,3.50
2024-02-29T02:30:22.569Z,3.50
2024-02-29T02:32:49.449Z,3.40
2024-02-29T02:35:16.479Z,3.50
2024-02-29T02:37:43.404Z,3.40
2024-02-29T02:40:11.853Z,3.50
2024-02-29T02:42:39.002Z,3.50
2024-02-29T02:45:06.358Z,3.60
2024-02-29T02:47:33.366Z,3.50
2024-02-29T02:50:00.337Z,3.50
2024-02-29T02:52:27.387Z,3.60
2024-02-29T02:54:54.685Z,3.70
2024-02-29T02:57:21.674Z,3.70
2024-02-29T02:59:48.624Z,3.70
2024-02-29T03:02:15.553Z,3.70
2024-02-29T03:04:42.506Z,3.80
2024-02-29T03:07:09.447Z,3.90
2024-02-29T03:09:36.448Z,3.80
2024-02-29T03:12:03.422Z,3.90
2024-02-29T03:14:30.589Z,3.70
2024-02-29T03:16:57.638Z,3.60
2024-02-29T03:19:24.576Z,3.70
2024-02-29T03:21:51.578Z,3.70
2024-02-29T03:24:18.799Z,3.80
2024-02-29T03:26:45.744Z,3.60
2024-02-29T03:29:13.257Z,3.50
2024-02-29T03:31:40.513Z,3.40
2024-02-29T03:34:07.575Z,3.40
2024-02-29T03:36:34.659Z,3.60
2024-02-29T03:39:01.706Z,3.50
2024-02-29T03:41:29.094Z,3.50
2024-02-29T03:44:02.481Z,3.40
2024-02-29T03:46:29.388Z,3.60
2024-02-29T03:48:56.296Z,3.60
2024-02-29T03:51:23.642Z,3.20
2024-02-29T03:53:51.192Z,3.30
2024-02-29T03:56:18.249Z,3.30
2024-02-29T03:58:45.209Z,3.30
2024-02-29T04:01:12.336Z,3.30
2024-02-29T04:03:40.429Z,3.40
2024-02-29T04:06:10.640Z,3.70
2024-02-29T04:08:37.737Z,3.60
2024-02-29T04:11:05.495Z,3.50
2024-02-29T04:13:32.652Z,3.60
2024-02-29T04:15:59.626Z,3.50
2024-02-29T04:18:26.546Z,3.40
2024-02-29T04:20:53.443Z,3.50
2024-02-29T04:23:20.348Z,3.40
2024-02-29T04:25:47.250Z,3.60
2024-02-29T04:28:15.855Z,3.60
2024-02-29T04:30:43.868Z,3.50
2024-02-29T04:33:12.939Z,3.60
2024-02-29T04:35:40.197Z,3.70
2024-02-29T04:38:07.226Z,3.80
2024-02-29T04:40:34.231Z,3.70
2024-02-29T04:43:01.726Z,3.70
2024-02-29T04:45:28.687Z,3.60
2024-02-29T04:47:55.869Z,3.60
2024-02-29T04:50:22.823Z,3.80
2024-02-29T04:52:49.787Z,3.70
2024-02-29T04:55:16.851Z,3.90
2024-02-29T04:57:43.910Z,3.80
2024-02-29T05:00:11.579Z,3.50
2024-02-29T05:02:38.615Z,3.60
2024-02-29T05:05:07.483Z,3.60
2024-02-29T05:07:35.037Z,3.50
2024-02-29T05:10:02.596Z,3.50
2024-02-29T05:12:29.673Z,3.50
2024-02-29T05:14:56.617Z,3.50
2024-02-29T05:17:23.615Z,3.70
2024-02-29T05:19:50.538Z,3.80
2024-02-29T05:22:17.456Z,3.50
2024-02-29T05:24:44.545Z,3.60
2024-02-29T05:27:11.523Z,3.70
2024-02-29T05:29:38.381Z,3.50
2024-02-29T05:32:05.587Z,3.60
2024-02-29T05:34:32.622Z,3.70
2024-02-29T05:36:59.624Z,3.70
2024-02-29T05:39:26.896Z,3.80
2024-02-29T05:41:57.234Z,3.90
2024-02-29T05:44:24.422Z,3.90
2024-02-29T05:46:51.418Z,3.80
2024-02-29T05:49:18.409Z,3.70
2024-02-29T05:51:45.528Z,3.70
2024-02-29T05:54:12.562Z,3.60
2024-02-29T05:56:39.756Z,3.60
2024-02-29T05:59:07.072Z,3.60
2024-02-29T06:01:34.162Z,3.70
2024-02-29T06:04:01.215Z,3.70
2024-02-29T06:06:28.188Z,3.90
2024-02-29T06:08:55.086Z,3.70
2024-02-29T06:11:21.952Z,3.80
2024-02-29T06:13:48.860Z,3.70
2024-02-29T06:16:15.829Z,3.80
2024-02-29T06:18:46.655Z,3.70
2024-02-29T06:21:13.605Z,3.60
2024-02-29T06:23:50.093Z,3.60
2024-02-29T06:26:16.945Z,3.70
2024-02-29T06:28:43.894Z,3.70
2024-02-29T06:31:11.068Z,3.60
2024-02-29T06:33:38.062Z,3.70
2024-02-29T06:36:08.158Z,3.70
2024-02-29T06:38:36.775Z,3.60
2024-02-29T06:41:08.822Z,3.70
2024-02-29T06:43:35.691Z,3.80
2024-02-29T06:46:06.341Z,3.80
2024-02-29T06:48:33.438Z,3.70
2024-02-29T06:51:00.430Z,3.70
2024-02-29T06:53:27.355Z,3.80
2024-02-29T06:55:54.246Z,3.80
2024-02-29T06:58:22.613Z,4.00
2024-02-29T07:00:49.894Z,4.00
2024-02-29T07:03:16.894Z,4.00
2024-02-29T07:05:43.823Z,4.00
2024-02-29T07:08:14.506Z,4.10
2024-02-29T07:10:42.315Z,4.20
2024-02-29T07:13:09.488Z,4.20
2024-02-29T07:15:36.406Z,4.30
2024-02-29T07:18:03.510Z,4.40
2024-02-29T07:20:30.500Z,4.50
2024-02-29T07:22:57.811Z,4.50
2024-02-29T07:25:24.833Z,4.60
2024-02-29T07:27:51.789Z,4.60
2024-02-29T07:30:19.775Z,4.60
2024-02-29T07:32:46.755Z,4.60
2024-02-29T07:35:18.736Z,4.50
2024-02-29T07:37:45.994Z,4.50
2024-02-29T07:40:13.219Z,4.60
2024-02-29T07:42:40.439Z,4.80
2024-02-29T07:45:08.809Z,4.90
2024-02-29T07:47:35.978Z,5.00
2024-02-29T07:50:06.901Z,5.00
2024-02-29T07:52:34.238Z,5.10
2024-02-29T07:55:01.188Z,5.10
2024-02-29T07:57:28.228Z,5.00
2024-02-29T07:59:55.162Z,5.20
2024-02-29T08:02:24.691Z,5.30
2024-02-29T08:04:52.104Z,5.40
2024-02-29T08:07:19.066Z,5.40
2024-02-29T08:09:46.085Z,5.50
2024-02-29T08:12:13.072Z,5.70
2024-02-29T08:14:39.960Z,5.70
2024-02-29T08:17:06.867Z,5.80
2024-02-29T08:19:33.736Z,5.90
2024-02-29T08:22:00.717Z,6.00
2024-02-29T08:24:27.899Z,6.00
2024-02-29T08:26:54.978Z,6.10
2024-02-29T08:29:21.933Z,6.10
2024-02-29T08:31:48.948Z,6.10
2024-02-29T08:34:15.914Z,6.20
2024-02-29T08:36:42.880Z,6.30
2024-02-29T08:39:09.769Z,6.30
2024-02-29T08:41:36.682Z,6.20
2024-02-29T08:44:04.563Z,6.50
2024-02-29T08:46:31.453Z,6.50
2024-02-29T08:49:00.456Z,6.40
2024-02-29T08:51:28.933Z,6.50
2024-02-29T08:53:56.068Z,6.50
2024-02-29T08:56:23.028Z,6.60
2024-02-29T08:58:50.128Z,6.70
2024-02-29T09:01:17.775Z,6.70
2024-02-29T09:03:44.856Z,6.70
2024-02-29T09:06:13.841Z,6.80
2024-02-29T09:08:41.354Z,6.90
2024-02-29T09:11:08.255Z,6.90
2024-02-29T09:13:36.069Z,6.90
2024-02-29T09:16:04.772Z,7.00
2024-02-29T09:18:31.811Z,7.00
2024-02-29T09:20:58.774Z,7.10
2024-02-29T09:23:27.368Z,7.10
2024-02-29T09:25:54.908Z,7.10
2024-02-29T09:28:22.070Z,7.10
2024-02-29T09:30:49.198Z,7.20
2024-02-29T09:33:16.205Z,7.20
2024-02-29T09:35:43.569Z,7.20
2024-02-29T09:38:10.450Z,7.30
2024-02-29T09:40:45.788Z,7.30
2024-02-29T09:43:18.462Z,7.30
2024-02-29T09:45:46.402Z,7.40
2024-02-29T09:48:16.249Z,7.30
2024-02-29T09:50:43.687Z,7.40
2024-02-29T09:53:11.934Z,7.40
2024-02-29T09:55:38.912Z,7.50
2024-02-29T09:58:08.145Z,7.50
2024-02-29T10:00:35.156Z,7.40
2024-02-29T10:03:02.401Z,7.50
2024-02-29T10:05:29.478Z,7.60
2024-02-29T10:07:56.438Z,7.60
2024-02-29T10:10:23.538Z,7.60
2024-02-29T10:12:58.145Z,7.60
2024-02-29T10:15:28.962Z,7.70
2024-02-29T10:17:59.721Z,7.70
2024-02-29T10:20:27.950Z,7.70
2024-02-29T10:22:55.281Z,7.70
2024-02-29T10:25:23.228Z,7.70
2024-02-29T10:27:50.357Z,7.80
2024-02-29T10:30:19.698Z,7.90
2024-02-29T10:32:47.696Z,7.90
2024-02-29T10:35:21.958Z,7.90
2024-02-29T10:37:54.767Z,7.90
2024-02-29T10:40:23.419Z,8.00
2024-02-29T10:42:56.362Z,8.10
2024-02-29T10:45:27.539Z,8.10
2024-02-29T10:48:16.010Z,8.00
2024-02-29T10:50:51.819Z,8.10
2024-02-29T10:53:54.159Z,8.20
2024-02-29T10:56:25.150Z,8.20
2024-02-29T10:59:08.636Z,8.20
2024-02-29T11:01:38.262Z,8.30
2024-02-29T11:04:07.017Z,8.20
2024-02-29T11:06:46.020Z,8.20
2024-02-29T11:09:18.241Z,8.30
2024-02-29T11:11:46.911Z,8.30
2024-02-29T11:14:16.581Z,8.30
2024-02-29T11:16:47.098Z,8.40
2024-02-29T11:19:19.565Z,8.30
2024-02-29T11:21:46.953Z,8.40
2024-02-29T11:24:19.854Z,8.40
2024-02-29T11:26:47.670Z,8.40
2024-02-29T11:29:16.317Z,8.50
2024-02-29T11:31:55.647Z,8.50
2024-02-29T11:34:23.045Z,8.50
2024-02-29T11:36:51.510Z,8.60
2024-02-29T11:39:22.180Z,8.60
2024-02-29T11:41:49.909Z,8.70
2024-02-29T11:44:16.908Z,8.70
2024-02-29T11:46:47.631Z,8.70
2024-02-29T11:49:18.603Z,8.70
2024-02-29T11:51:46.593Z,8.80
2024-02-29T11:54:17.365Z,8.80
2024-02-29T11:56:44.782Z,8.80
2024-02-29T11:59:14.131Z,8.70
2024-02-29T12:01:45.189Z,8.80
2024-02-29T12:04:12.877Z,8.80
2024-02-29T12:06:46.152Z,8.90
2024-02-29T12:09:15.015Z,8.90
2024-02-29T12:11:43.467Z,8.90
2024-02-29T12:14:10.646Z,8.90
2024-02-29T12:16:39.591Z,9.00
2024-02-29T12:19:09.476Z,9.00
2024-02-29T12:21:37.537Z,9.00
2024-02-29T12:24:06.693Z,9.10
2024-02-29T12:26:33.749Z,9.10
2024-02-29T12:29:00.757Z,9.10
2024-02-29T12:31:27.777Z,9.20
2024-02-29T12:33:55.422Z,9.20
2024-02-29T12:36:25.374Z,9.20
2024-02-29T12:38:53.548Z,9.20
2024-02-29T12:41:21.059Z,9.20
2024-02-29T12:43:55.245Z,9.30
2024-02-29T12:46:22.214Z,9.30
2024-02-29T12:48:49.258Z,9.30
2024-02-29T12:51:16.196Z,9.40
2024-02-29T12:53:43.061Z,9.30
2024-02-29T12:56:09.965Z,9.40
2024-02-29T12:58:37.092Z,9.40
2024-02-29T13:01:06.957Z,9.50
2024-02-29T13:03:34.601Z,9.40
2024-02-29T13:06:01.606Z,9.40
2024-02-29T13:08:28.537Z,9.40
2024-02-29T13:10:55.404Z,9.50
2024-02-29T13:13:22.290Z,9.50
2024-02-29T13:15:49.300Z,9.50
2024-02-29T13:18:16.190Z,9.60
2024-02-29T13:20:43.081Z,9.50
2024-02-29T13:23:10.060Z,9.50
2024-02-29T13:25:37.411Z,9.50
2024-02-29T13:28:05.465Z,9.60
2024-02-29T13:30:32.561Z,9.60
2024-02-29T13:32:59.674Z,9.50
2024-02-29T13:35:27.430Z,9.60
2024-02-29T13:37:54.560Z,9.60
2024-02-29T13:40:21.840Z,9.70
2024-02-29T13:42:51.647Z,9.70
2024-02-29T13:45:18.935Z,9.70
2024-02-29T13:47:52.965Z,9.70
2024-02-29T13:50:21.764Z,9.70
2024-02-29T13:52:49.298Z,9.80
2024-02-29T13:55:16.535Z,9.80
2024-02-29T13:57:43.798Z,9.80
2024-02-29T14:00:11.631Z,9.80
2024-02-29T14:02:41.555Z,9.80
2024-02-29T14:05:08.879Z,9.80
2024-02-29T14:07:35.786Z,9.80
2024-02-29T14:10:03.422Z,9.80
2024-02-29T14:12:32.707Z,9.80
2024-02-29T14:14:59.595Z,9.80
2024-02-29T14:17:26.629Z,9.90
2024-02-29T14:19:53.521Z,9.90
2024-02-29T14:22:20.529Z,9.90
2024-02-29T14:24:50.372Z,9.90
2024-02-29T14:27:17.774Z,9.90
2024-02-29T14:29:45.011Z,9.90
2024-02-29T14:32:11.888Z,9.90
2024-02-29T14:34:38.791Z,9.90
2024-02-29T14:37:06.107Z,10.00
2024-02-29T14:39:33.193Z,10.00
2024-02-29T14:42:00.083Z,10.00
2024-02-29T14:44:27.057Z,9.90
2024-02-29T14:46:55.508Z,10.00
2024-02-29T14:49:22.559Z,10.00
2024-02-29T14:51:49.609Z,10.00
2024-02-29T14:54:16.494Z,10.00
2024-02-29T14:56:44.502Z,10.00
2024-02-29T14:59:11.970Z,10.00
2024-02-29T15:01:39.338Z,10.00
2024-02-29T15:04:06.439Z,10.00
2024-02-29T15:06:33.381Z,10.10
2024-02-29T15:09:00.502Z,10.10
2024-02-29T15:11:27.938Z,10.10
2024-02-29T15:13:55.101Z,10.00
2024-02-29T15:16:22.334Z,10.10
2024-02-29T15:18:49.421Z,10.10
2024-02-29T15:21:16.369Z,10.10
2024-02-29T15:23:43.393Z,10.00
2024-02-29T15:26:12.092Z,10.00
2024-02-29T15:28:48.712Z,10.10
2024-02-29T15:31:18.774Z,10.00
2024-02-29T15:33:45.706Z,10.10
2024-02-29T15:36:12.682Z,10.10
2024-02-29T15:38:40.059Z,10.00
2024-02-29T15:41:07.057Z,10.00
2024-02-29T15:43:34.072Z,10.00
2024-02-29T15:46:03.634Z,10.00
2024-02-29T15:48:30.748Z,10.00
2024-02-29T15:50:58.633Z,10.00
2024-02-29T15:53:25.634Z,10.00
2024-02-29T15:55:53.279Z,10.00
2024-02-29T15:58:20.311Z,10.00
2024-02-29T16:00:49.491Z,10.00
2024-02-29T16:03:16.820Z,9.90
2024-02-29T16:05:43.727Z,10.00
2024-02-29T16:08:10.816Z,10.00
2024-02-29T16:10:38.637Z,9.90
2024-02-29T16:13:06.035Z,9.90
2024-02-29T16:15:33.167Z,9.90
2024-02-29T16:18:00.599Z,10.00
2024-02-29T16:20:27.581Z,9.90
2024-02-29T16:22:54.505Z,9.90
2024-02-29T16:25:22.079Z,9.90
2024-02-29T16:27:51.350Z,9.90
2024-02-29T16:30:18.962Z,9.80
2024-02-29T16:32:47.580Z,9.90
2024-02-29T16:35:14.792Z,9.70
2024-02-29T16:37:41.945Z,9.80
2024-02-29T16:40:09.217Z,9.70
2024-02-29T16:42:36.212Z,9.70
2024-02-29T16:45:03.274Z,9.70
2024-02-29T16:47:30.380Z,9.70
2024-02-29T16:49:57.435Z,9.70
2024-02-29T16:52:24.442Z,9.60
2024-02-29T16:54:51.468Z,9.60
2024-02-29T16:57:18.597Z,9.60
2024-02-29T16:59:45.647Z,9.60
2024-02-29T17:02:16.399Z,9.60
2024-02-29T17:04:46.037Z,9.60
2024-02-29T17:07:13.879Z,9.60
2024-02-29T17:09:40.970Z,9.50
2024-02-29T17:12:09.868Z,9.50
2024-02-29T17:14:37.061Z,9.50
2024-02-29T17:17:09.195Z,9.40
2024-02-29T17:19:36.498Z,9.40
2024-02-29T17:22:04.089Z,9.40
2024-02-29T17:24:31.081Z,9.30
2024-02-29T17:26:58.193Z,9.30
2024-02-29T17:29:25.352Z,9.40
2024-02-29T17:31:52.279Z,9.30
2024-02-29T17:34:19.194Z,9.30
2024-02-29T17:36:46.130Z,9.20
2024-02-29T17:39:13.209Z,9.30
2024-02-29T17:41:40.103Z,9.20
2024-02-29T17:44:07.160Z,9.20
2024-02-29T17:46:34.142Z,9.20
2024-02-29T17:49:01.081Z,9.20
2024-02-29T17:51:28.198Z,9.20
2024-02-29T17:53:55.102Z,9.10
2024-02-29T17:56:22.154Z,9.10
2024-02-29T17:58:50.693Z,9.00
2024-02-29T18:01:18.061Z,9.00
2024-02-29T18:03:47.972Z,9.00
2024-02-29T18:06:15.706Z,9.00
2024-02-29T18:08:42.871Z,8.90
2024-02-29T18:11:10.138Z,8.90
2024-02-29T18:13:38.147Z,8.90
2024-02-29T18:16:05.744Z,8.80
2024-02-29T18:18:32.829Z,8.90
2024-02-29T18:20:59.683Z,8.80
2024-02-29T18:23:27.026Z,8.80
2024-02-29T18:25:56.596Z,8.80
2024-02-29T18:28:23.802Z,9.10
2024-02-29T18:30:51.049Z,8.80
2024-02-29T18:33:18.056Z,8.80
2024-02-29T18:35:45.657Z,8.80
2024-02-29T18:38:12.788Z,8.80
2024-02-29T18:40:39.705Z,8.80
2024-02-29T18:43:06.800Z,8.70
2024-02-29T18:45:34.477Z,8.80
2024-02-29T18:48:02.021Z,8.70
2024-02-29T18:50:31.306Z,8.70
2024-02-29T18:52:58.212Z,8.80
2024-02-29T18:55:25.309Z,8.70
2024-02-29T18:57:52.705Z,8.70
2024-02-29T19:00:20.029Z,8.80
2024-02-29T19:02:47.017Z,8.70
2024-02-29T19:05:13.966Z,8.70
2024-02-29T19:07:41.205Z,8.70
2024-02-29T19:10:11.276Z,8.70
2024-02-29T19:12:39.079Z,8.70
2024-02-29T19:15:08.508Z,8.70
2024-02-29T19:17:35.647Z,8.70
2024-02-29T19:20:07.234Z,8.70
2024-02-29T19:22:36.086Z,8.70
2024-02-29T19:25:03.485Z,8.60
2024-02-29T19:27:30.361Z,8.50
2024-02-29T19:29:57.223Z,8.30
2024-02-29T19:32:24.696Z,8.20
2024-02-29T19:34:51.576Z,8.20
2024-02-29T19:37:18.657Z,8.20
2024-02-29T19:39:47.837Z,8.10
2024-02-29T19:42:14.960Z,8.00
2024-02-29T19:44:42.025Z,8.00
2024-02-29T19:47:08.959Z,8.00
2024-02-29T19:49:39.012Z,7.90
2024-02-29T19:52:07.044Z,7.90
2024-02-29T19:54:35.047Z,7.90
2024-02-29T19:57:01.987Z,7.90
2024-02-29T19:59:28.856Z,7.90
2024-02-29T20:01:56.007Z,7.90
2024-02-29T20:04:26.138Z,8.10
2024-02-29T20:06:55.435Z,8.10
2024-02-29T20:09:23.101Z,8.10
2024-02-29T20:11:50.034Z,8.10
2024-02-29T20:14:16.938Z,8.20
2024-02-29T20:16:43.781Z,8.10
2024-02-29T20:19:10.978Z,8.10
2024-02-29T20:21:38.010Z,8.10
2024-02-29T20:24:05.389Z,8.10
2024-02-29T20:26:32.457Z,8.10
2024-02-29T20:28:59.332Z,8.10
2024-02-29T20:31:29.901Z,8.20
2024-02-29T20:33:57.163Z,8.10
2024-02-29T20:36:24.380Z,8.10
2024-02-29T20:38:52.655Z,8.20
2024-02-29T20:41:19.516Z,8.10
2024-02-29T20:43:46.635Z,8.10
2024-02-29T20:46:16.333Z,8.20
2024-02-29T20:48:45.648Z,8.20
2024-02-29T20:51:13.250Z,8.20
2024-02-29T20:53:40.250Z,8.10
2024-02-29T20:56:07.698Z,8.10
2024-02-29T20:58:36.629Z,8.10
2024-02-29T21:01:04.612Z,8.10
2024-02-29T21:03:32.420Z,8.10
2024-02-29T21:06:00.369Z,8.00
2024-02-29T21:08:33.502Z,7.90
2024-02-29T21:11:03.529Z,7.90
2024-02-29T21:13:32.887Z,7.90
2024-02-29T21:16:00.319Z,7.90
2024-02-29T21:18:27.405Z,7.90
2024-02-29T21:20:54.313Z,7.80
2024-02-29T21:23:21.329Z,7.90
2024-02-29T21:25:48.659Z,7.90
2024-02-29T21:28:15.676Z,7.90
2024-02-29T21:30:42.774Z,7.90
2024-02-29T21:33:09.719Z,8.00
2024-02-29T21:35:37.497Z,8.00
2024-02-29T21:38:04.920Z,8.00
2024-02-29T21:40:31.910Z,8.00
2024-02-29T21:42:58.843Z,8.00
2024-02-29T21:45:25.890Z,7.90
2024-02-29T21:47:52.783Z,7.90
2024-02-29T21:50:19.672Z,7.90
2024-02-29T21:52:46.566Z,7.90
2024-02-29T21:55:15.988Z,7.80
2024-02-29T21:57:42.874Z,7.50
2024-02-29T22:00:10.645Z,7.40
2024-02-29T22:02:43.681Z,7.20
2024-02-29T22:05:11.572Z,7.20
2024-02-29T22:07:38.913Z,7.30
2024-02-29T22:10:07.249Z,7.30
2024-02-29T22:12:34.131Z,7.20
2024-02-29T22:15:01.768Z,7.40
2024-02-29T22:17:28.709Z,7.50
2024-02-29T22:19:55.605Z,7.50
2024-02-29T22:22:22.486Z,7.50
2024-02-29T22:24:49.515Z,7.40
2024-02-29T22:27:17.129Z,7.50
2024-02-29T22:29:44.106Z,7.40
2024-02-29T22:32:10.963Z,7.30
2024-02-29T22:34:37.938Z,7.20
2024-02-29T22:37:05.124Z,7.20
2024-02-29T22:39:32.051Z,7.10
2024-02-29T22:42:02.278Z,7.10
2024-02-29T22:44:29.994Z,7.10
2024-02-29T22:46:56.967Z,6.90
2024-02-29T22:49:24.506Z,6.90
2024-02-29T22:51:51.719Z,6.80
2024-02-29T22:54:18.986Z,6.70
2024-02-29T22:56:45.957Z,6.70
2024-02-29T22:59:12.846Z,6.50
2024-02-29T23:01:45.726Z,6.50
2024-02-29T23:04:13.605Z,6.50
2024-02-29T23:06:41.174Z,6.50
2024-02-29T23:09:08.111Z,6.60
2024-02-29T23:11:35.004Z,6.40
2024-02-29T23:14:01.908Z,6.40
2024-02-29T23:16:28.872Z,6.50
2024-02-29T23:18:55.917Z,6.30
2024-02-29T23:21:22.918Z,6.20
2024-02-29T23:23:49.870Z,6.20
2024-02-29T23:26:17.468Z,6.20
2024-02-29T23:28:44.360Z,6.20
2024-02-29T23:31:11.315Z,6.30
2024-02-29T23:33:38.307Z,6.20
2024-02-29T23:36:07.841Z,6.20
2024-02-29T23:38:34.734Z,6.10
2024-02-29T23:41:01.611Z,6.20
2024-02-29T23:43:28.620Z,6.20
2024-02-29T23:45:56.075Z,6.10
2024-02-29T23:48:22.942Z,6.10
2024-02-29T23:50:50.093Z,6.20
2024-02-29T23:53:17.223Z,6.20
2024-02-29T23:55:44.829Z,6.20
2024-02-29T23:58:11.787Z,6.20
